Time;durP1;ratioP1;P1;durP2;ratioP2;P2;SDS_P1;SDS_P2;PMS_P1;PMS_P2;Temp;Humidity;BMP_temperature;BMP_pressure;BME280_temperature;BME280_humidity;BME280_pressure;Samples;Min_cycle;Max_cycle;Signal;HPM_P1;HPM_P2
2023/12/23 00:00:16;;;;;;;2.07;0.90;;;;;6.90;100204.00;;;;5037016;28;20225;-69
2023/12/23 00:03:02;;;;;;;3.13;1.00;;;;;6.90;100188.00;;;;5043300;28;20278;-68
2023/12/23 00:05:49;;;;;;;2.47;1.10;;;;;6.90;100198.00;;;;5038542;28;20245;-69
2023/12/23 00:08:37;;;;;;;2.60;1.10;;;;;6.90;100205.00;;;;5042543;28;20237;-70
2023/12/23 00:11:23;;;;;;;1.60;0.70;;;;;7.00;100210.00;;;;5039478;28;20709;-69
2023/12/23 00:14:10;;;;;;;1.67;1.17;;;;;7.00;100226.00;;;;5035818;28;20311;-68
2023/12/23 00:16:56;;;;;;;6.57;1.07;;;;;7.00;100213.00;;;;5034286;28;20322;-68
2023/12/23 00:19:43;;;;;;;1.10;1.00;;;;;7.00;100214.00;;;;5038224;28;20228;-69
2023/12/23 00:22:29;;;;;;;3.30;0.80;;;;;7.10;100225.00;;;;5044208;28;20229;-69
2023/12/23 00:25:17;;;;;;;4.70;1.13;;;;;7.10;100233.00;;;;5043661;28;20330;-68
2023/12/23 00:28:04;;;;;;;2.13;1.20;;;;;7.10;100218.00;;;;5045442;28;20706;-69
2023/12/23 00:30:50;;;;;;;4.03;1.33;;;;;7.10;100232.00;;;;5040365;28;20237;-70
2023/12/23 00:33:37;;;;;;;6.97;1.17;;;;;7.10;100224.00;;;;5037485;28;20282;-69
2023/12/23 00:36:23;;;;;;;6.17;0.97;;;;;7.10;100209.00;;;;5044430;28;20240;-66
2023/12/23 00:39:10;;;;;;;6.17;1.53;;;;;7.10;100208.00;;;;5043564;28;20828;-67
2023/12/23 00:41:57;;;;;;;2.37;1.20;;;;;7.20;100210.00;;;;5045132;28;20237;-67
2023/12/23 00:44:43;;;;;;;0.90;0.90;;;;;7.20;100206.00;;;;5033851;28;20233;-69
2023/12/23 00:47:30;;;;;;;3.90;0.80;;;;;7.20;100215.00;;;;5045168;28;20232;-67
2023/12/23 00:50:21;;;;;;;5.23;1.20;;;;;7.20;100211.00;;;;5048434;28;20603;-68
2023/12/23 00:53:08;;;;;;;1.70;1.17;;;;;7.10;100219.00;;;;5035536;28;20228;-67
2023/12/23 00:55:54;;;;;;;2.83;1.13;;;;;7.10;100217.00;;;;5047495;28;20354;-68
2023/12/23 00:58:42;;;;;;;1.60;1.10;;;;;7.10;100217.00;;;;5042654;28;20795;-68
2023/12/23 01:01:29;;;;;;;3.07;1.20;;;;;7.10;100221.00;;;;5034949;28;20233;-68
2023/12/23 01:04:15;;;;;;;4.67;1.70;;;;;7.20;100212.00;;;;5043818;28;20731;-68
2023/12/23 01:07:02;;;;;;;1.13;0.70;;;;;7.20;100212.00;;;;5043370;28;20236;-69
2023/12/23 01:09:48;;;;;;;2.57;0.90;;;;;7.10;100220.00;;;;5035707;28;20295;-68
2023/12/23 01:12:35;;;;;;;2.20;0.87;;;;;7.10;100222.00;;;;5037050;28;20283;-68
2023/12/23 01:15:23;;;;;;;2.40;0.83;;;;;7.20;100230.00;;;;5048854;28;20651;-68
2023/12/23 01:18:09;;;;;;;3.03;1.73;;;;;7.20;100233.00;;;;5043716;28;20362;-68
2023/12/23 01:20:56;;;;;;;4.50;1.33;;;;;7.20;100235.00;;;;5037110;28;20302;-68
2023/12/23 01:23:42;;;;;;;2.23;1.20;;;;;7.30;100231.00;;;;5037674;28;20228;-69
2023/12/23 01:26:28;;;;;;;2.40;1.17;;;;;7.30;100235.00;;;;5038129;28;20743;-64
2023/12/23 01:29:15;;;;;;;4.00;0.90;;;;;7.30;100218.00;;;;5038757;28;20290;-68
2023/12/23 01:32:03;;;;;;;5.93;1.60;;;;;7.30;100220.00;;;;5041373;28;20232;-69
2023/12/23 01:34:49;;;;;;;8.60;0.90;;;;;7.30;100219.00;;;;5034246;28;20238;-69
2023/12/23 01:37:36;;;;;;;1.10;1.00;;;;;7.40;100223.00;;;;5038569;28;20260;-69
2023/12/23 01:40:22;;;;;;;1.73;0.67;;;;;7.30;100221.00;;;;5041619;28;20231;-68
2023/12/23 01:43:09;;;;;;;3.63;0.97;;;;;7.30;100223.00;;;;5041996;28;20232;-68
2023/12/23 01:45:58;;;;;;;6.03;1.50;;;;;7.30;100214.00;;;;5039171;28;21046;-68
2023/12/23 01:48:47;;;;;;;2.27;0.80;;;;;7.30;100220.00;;;;5043254;28;20229;-69
2023/12/23 01:51:33;;;;;;;2.13;1.10;;;;;7.30;100202.00;;;;5039158;28;20814;-68
2023/12/23 01:54:21;;;;;;;3.60;1.20;;;;;7.30;100194.00;;;;5040322;28;20715;-68
2023/12/23 01:57:08;;;;;;;4.27;0.80;;;;;7.30;100211.00;;;;5041035;28;20231;-65
2023/12/23 01:59:55;;;;;;;9.73;1.33;;;;;7.40;100216.00;;;;5040190;28;20351;-71
2023/12/23 02:02:41;;;;;;;3.43;0.93;;;;;7.40;100221.00;;;;5031123;28;20761;-67
2023/12/23 02:05:29;;;;;;;3.60;1.40;;;;;7.40;100223.00;;;;5037324;28;20244;-68
2023/12/23 02:08:16;;;;;;;9.83;1.33;;;;;7.40;100219.00;;;;5041283;28;20956;-68
2023/12/23 02:11:06;;;;;;;1.83;0.80;;;;;7.50;100214.00;;;;5045558;28;20697;-67
2023/12/23 02:14:03;;;;;;;0.77;0.77;;;;;7.40;100209.00;;;;5038184;28;20251;-68
2023/12/23 02:16:51;;;;;;;1.80;0.97;;;;;7.40;100183.00;;;;5036653;28;20233;-68
2023/12/23 02:19:37;;;;;;;2.83;0.77;;;;;7.40;100187.00;;;;5043440;28;20276;-68
2023/12/23 02:22:25;;;;;;;2.33;1.00;;;;;7.40;100198.00;;;;5037695;28;20313;-70
2023/12/23 02:25:11;;;;;;;3.90;0.87;;;;;7.40;100189.00;;;;5043715;28;20225;-70
2023/12/23 02:28:01;;;;;;;2.47;1.20;;;;;7.40;100188.00;;;;5037500;28;20265;-69
2023/12/23 02:30:49;;;;;;;3.87;1.00;;;;;7.50;100169.00;;;;5036744;28;20619;-68
2023/12/23 02:33:36;;;;;;;1.83;0.80;;;;;7.50;100175.00;;;;5041422;28;20243;-68
2023/12/23 02:36:23;;;;;;;1.33;0.73;;;;;7.50;100166.00;;;;5044299;28;20233;-69
2023/12/23 02:39:10;;;;;;;3.10;1.20;;;;;7.50;100168.00;;;;5043521;28;20228;-67
2023/12/23 02:42:00;;;;;;;3.43;1.17;;;;;7.50;100165.00;;;;5044188;28;20233;-69
2023/12/23 02:44:47;;;;;;;4.33;0.90;;;;;7.40;100160.00;;;;5031641;28;20234;-68
2023/12/23 02:47:33;;;;;;;1.87;1.47;;;;;7.50;100163.00;;;;5052754;28;20232;-68
2023/12/23 02:50:20;;;;;;;4.63;0.90;;;;;7.50;100159.00;;;;5041737;28;20296;-68
2023/12/23 02:53:08;;;;;;;13.53;0.90;;;;;7.50;100140.00;;;;5030847;28;20343;-69
2023/12/23 02:55:55;;;;;;;5.00;2.20;;;;;7.50;100144.00;;;;5042517;28;20332;-68
2023/12/23 02:58:42;;;;;;;2.80;0.97;;;;;7.50;100135.00;;;;5047435;28;20225;-69
2023/12/23 03:01:28;;;;;;;2.57;1.00;;;;;7.50;100135.00;;;;5050457;28;20231;-68
2023/12/23 03:04:15;;;;;;;7.10;1.30;;;;;7.50;100131.00;;;;5045594;28;20245;-68
2023/12/23 03:07:01;;;;;;;2.60;0.90;;;;;7.50;100121.00;;;;5048567;28;20255;-67
2023/12/23 03:09:47;;;;;;;4.47;1.00;;;;;7.50;100114.00;;;;5041110;28;20917;-68
2023/12/23 03:12:35;;;;;;;1.00;0.90;;;;;7.50;100111.00;;;;5044161;28;20232;-70
2023/12/23 03:15:21;;;;;;;5.17;1.23;;;;;7.40;100098.00;;;;5032620;28;20627;-69
2023/12/23 03:18:08;;;;;;;2.80;1.10;;;;;7.40;100099.00;;;;5032402;28;20237;-69
2023/12/23 03:20:54;;;;;;;6.33;1.80;;;;;7.40;100107.00;;;;5040990;28;20228;-69
2023/12/23 03:23:41;;;;;;;3.30;1.10;;;;;7.40;100091.00;;;;5037571;28;20256;-70
2023/12/23 03:26:28;;;;;;;1.23;1.00;;;;;7.50;100080.00;;;;5043935;28;20609;-69
2023/12/23 03:29:16;;;;;;;4.67;1.23;;;;;7.50;100081.00;;;;5041551;28;20229;-68
2023/12/23 03:32:02;;;;;;;2.63;1.33;;;;;7.50;100060.00;;;;5045648;28;20226;-68
2023/12/23 03:34:49;;;;;;;3.23;0.83;;;;;7.50;100058.00;;;;5045583;28;20238;-68
2023/12/23 03:37:35;;;;;;;2.37;1.33;;;;;7.50;100047.00;;;;5046115;28;20254;-70
2023/12/23 03:40:22;;;;;;;1.23;1.10;;;;;7.50;100055.00;;;;5041505;28;20252;-69
2023/12/23 03:43:08;;;;;;;3.23;0.97;;;;;7.50;100039.00;;;;5048467;28;20853;-69
2023/12/23 03:45:56;;;;;;;2.07;1.27;;;;;7.50;100039.00;;;;5051739;28;20229;-70
2023/12/23 03:48:42;;;;;;;1.00;0.97;;;;;7.50;100032.00;;;;5041131;28;20253;-69
2023/12/23 03:51:28;;;;;;;2.17;1.27;;;;;7.50;100029.00;;;;5044085;28;20646;-68
2023/12/23 03:54:14;;;;;;;1.43;1.13;;;;;7.50;100015.00;;;;5046343;28;20287;-68
2023/12/23 03:57:01;;;;;;;1.70;1.60;;;;;7.50;100018.00;;;;5040148;28;20236;-68
2023/12/23 03:59:47;;;;;;;3.27;1.00;;;;;7.50;100010.00;;;;5046143;28;20235;-68
2023/12/23 04:02:35;;;;;;;0.87;0.87;;;;;7.50;100006.00;;;;5045377;28;20843;-68
2023/12/23 04:05:22;;;;;;;1.27;1.00;;;;;7.50;100013.00;;;;5045886;28;20370;-67
2023/12/23 04:08:09;;;;;;;2.23;1.10;;;;;7.60;99998.00;;;;5040541;28;20330;-68
2023/12/23 04:10:55;;;;;;;2.10;1.20;;;;;7.50;99990.00;;;;5038034;28;20234;-69
2023/12/23 04:13:42;;;;;;;2.67;1.57;;;;;7.50;99972.00;;;;5044716;28;20234;-65
2023/12/23 04:16:28;;;;;;;4.73;1.70;;;;;7.50;99977.00;;;;5045155;28;20228;-68
2023/12/23 04:19:16;;;;;;;1.50;1.40;;;;;7.70;99966.00;;;;5045951;28;20283;-69
2023/12/23 04:22:02;;;;;;;2.13;1.63;;;;;7.70;99958.00;;;;5042503;28;20222;-67
2023/12/23 04:24:49;;;;;;;3.20;1.80;;;;;7.70;99946.00;;;;5044944;28;20304;-69
2023/12/23 04:27:35;;;;;;;2.10;1.70;;;;;7.70;99937.00;;;;5035076;28;20229;-69
2023/12/23 04:30:21;;;;;;;6.33;2.00;;;;;7.70;99941.00;;;;5045258;28;20358;-69
2023/12/23 04:33:08;;;;;;;1.97;1.70;;;;;7.80;99931.00;;;;5041947;28;20284;-69
2023/12/23 04:35:55;;;;;;;2.97;2.23;;;;;7.80;99914.00;;;;5044469;28;20227;-68
2023/12/23 04:38:41;;;;;;;4.00;2.10;;;;;7.90;99915.00;;;;5041131;28;20259;-69
2023/12/23 04:41:28;;;;;;;3.30;2.40;;;;;7.90;99912.00;;;;5041476;28;20816;-69
2023/12/23 04:44:14;;;;;;;2.43;1.83;;;;;8.00;99916.00;;;;5041804;28;20227;-68
2023/12/23 04:47:00;;;;;;;2.80;2.27;;;;;8.10;99904.00;;;;5043352;28;20280;-69
2023/12/23 04:49:47;;;;;;;4.10;2.37;;;;;8.20;99921.00;;;;5040980;28;20295;-70
2023/12/23 04:52:34;;;;;;;5.33;2.10;;;;;8.30;99904.00;;;;5041139;28;20265;-69
2023/12/23 04:55:21;;;;;;;4.10;1.83;;;;;8.30;99916.00;;;;5040807;28;20733;-71
2023/12/23 04:58:08;;;;;;;5.33;1.90;;;;;8.40;99903.00;;;;5044411;28;20229;-67
2023/12/23 05:00:54;;;;;;;2.10;1.90;;;;;8.40;99887.00;;;;5033167;28;20752;-66
2023/12/23 05:03:41;;;;;;;4.43;2.00;;;;;8.50;99895.00;;;;5044196;28;20239;-69
2023/12/23 05:06:28;;;;;;;5.60;2.30;;;;;8.60;99862.00;;;;5041555;28;20712;-68
2023/12/23 05:09:15;;;;;;;3.97;2.13;;;;;8.60;99880.00;;;;5038399;28;20225;-70
2023/12/23 05:12:02;;;;;;;5.60;2.77;;;;;8.60;99886.00;;;;5040014;28;20229;-70
2023/12/23 05:14:48;;;;;;;8.40;2.50;;;;;8.60;99881.00;;;;5035771;28;20746;-68
2023/12/23 05:17:34;;;;;;;6.17;2.80;;;;;8.60;99886.00;;;;5040964;28;20249;-69
2023/12/23 05:20:21;;;;;;;6.77;2.70;;;;;8.70;99866.00;;;;5045147;28;20381;-68
2023/12/23 05:23:08;;;;;;;2.57;2.03;;;;;8.70;99859.00;;;;5035348;28;20230;-68
2023/12/23 05:25:55;;;;;;;7.23;2.07;;;;;8.70;99848.00;;;;5038553;28;20731;-71
2023/12/23 05:28:41;;;;;;;8.00;2.20;;;;;8.70;99858.00;;;;5040937;28;20301;-68
2023/12/23 05:31:28;;;;;;;5.27;2.47;;;;;8.70;99864.00;;;;5039713;28;20235;-68
2023/12/23 05:34:14;;;;;;;5.33;2.07;;;;;8.80;99875.00;;;;5043702;28;20242;-69
2023/12/23 05:37:01;;;;;;;7.53;2.70;;;;;8.80;99854.00;;;;5039658;28;20235;-69
2023/12/23 05:39:48;;;;;;;6.10;1.90;;;;;8.80;99859.00;;;;5044347;28;20229;-69
2023/12/23 05:42:36;;;;;;;7.07;2.83;;;;;8.80;99869.00;;;;5040913;28;20760;-69
2023/12/23 05:45:22;;;;;;;8.23;2.57;;;;;8.80;99887.00;;;;5041763;28;20222;-68
2023/12/23 05:48:08;;;;;;;4.97;2.30;;;;;8.80;99870.00;;;;5038554;28;20254;-70
2023/12/23 05:50:54;;;;;;;3.03;1.90;;;;;8.80;99875.00;;;;5044633;28;20232;-68
2023/12/23 05:53:41;;;;;;;3.27;1.93;;;;;8.80;99860.00;;;;5035497;28;20237;-68
2023/12/23 05:56:28;;;;;;;4.53;1.50;;;;;8.80;99871.00;;;;5037996;28;20230;-68
2023/12/23 05:59:15;;;;;;;1.80;1.70;;;;;8.80;99876.00;;;;5040907;28;20351;-69
2023/12/23 06:02:02;;;;;;;3.90;2.20;;;;;8.80;99873.00;;;;5043439;28;20625;-68
2023/12/23 06:04:48;;;;;;;5.50;2.50;;;;;8.80;99864.00;;;;5049463;28;20291;-69
2023/12/23 06:07:35;;;;;;;7.10;2.23;;;;;8.80;99876.00;;;;5043474;28;20235;-68
2023/12/23 06:10:21;;;;;;;5.03;1.80;;;;;8.90;99860.00;;;;5041348;28;20231;-70
2023/12/23 06:13:08;;;;;;;3.53;2.10;;;;;8.90;99866.00;;;;5034351;28;20227;-69
2023/12/23 06:15:55;;;;;;;3.53;1.67;;;;;8.90;99872.00;;;;5041945;28;20705;-70
2023/12/23 06:18:42;;;;;;;2.50;1.67;;;;;8.90;99859.00;;;;5043886;28;20238;-69
2023/12/23 06:21:28;;;;;;;5.30;2.40;;;;;8.90;99878.00;;;;5044092;28;20722;-69
2023/12/23 06:24:15;;;;;;;3.83;1.87;;;;;8.90;99860.00;;;;5039813;28;20227;-68
2023/12/23 06:27:01;;;;;;;4.57;2.00;;;;;8.90;99853.00;;;;5041032;28;20820;-69
2023/12/23 06:29:48;;;;;;;8.30;2.53;;;;;8.90;99836.00;;;;5034485;28;20255;-69
2023/12/23 06:32:35;;;;;;;8.40;2.70;;;;;8.90;99840.00;;;;5043387;28;20226;-69
2023/12/23 06:35:22;;;;;;;6.00;1.90;;;;;8.90;99838.00;;;;5037485;28;20707;-68
2023/12/23 06:38:08;;;;;;;6.43;1.80;;;;;8.90;99838.00;;;;5036457;28;20231;-68
2023/12/23 06:40:55;;;;;;;5.23;2.30;;;;;9.00;99826.00;;;;5037617;28;20611;-68
2023/12/23 06:43:41;;;;;;;8.80;2.23;;;;;9.00;99834.00;;;;5038653;28;20235;-68
2023/12/23 06:46:38;;;;;;;8.07;2.13;;;;;9.00;99840.00;;;;5048739;28;20301;-69
2023/12/23 06:49:27;;;;;;;8.43;2.27;;;;;9.00;99834.00;;;;5033041;28;20298;-69
2023/12/23 06:52:13;;;;;;;2.83;1.83;;;;;8.90;99841.00;;;;5040141;28;20247;-68
2023/12/23 06:55:00;;;;;;;4.47;2.07;;;;;8.90;99841.00;;;;5037715;28;20230;-69
2023/12/23 06:57:46;;;;;;;4.37;1.80;;;;;9.00;99847.00;;;;5044705;28;20329;-71
2023/12/23 07:00:32;;;;;;;13.17;3.13;;;;;9.00;99840.00;;;;5043574;28;20235;-71
2023/12/23 07:03:18;;;;;;;4.93;2.23;;;;;9.00;99851.00;;;;5031735;28;20223;-73
2023/12/23 07:06:06;;;;;;;6.30;2.23;;;;;9.10;99823.00;;;;5042837;28;20700;-69
2023/12/23 07:08:53;;;;;;;8.00;2.33;;;;;9.00;99826.00;;;;5041339;28;20239;-69
2023/12/23 07:11:40;;;;;;;3.03;1.70;;;;;9.00;99844.00;;;;5038852;28;20229;-70
2023/12/23 07:14:26;;;;;;;4.10;2.43;;;;;9.10;99842.00;;;;5044950;28;20297;-72
2023/12/23 07:17:13;;;;;;;4.23;2.10;;;;;9.00;99852.00;;;;5028356;28;20235;-70
2023/12/23 07:20:03;;;;;;;5.60;2.30;;;;;9.00;99848.00;;;;5048341;28;20236;-69
2023/12/23 07:22:51;;;;;;;5.90;2.40;;;;;9.00;99856.00;;;;5041527;28;20589;-70
2023/12/23 07:25:37;;;;;;;10.73;2.47;;;;;9.00;99826.00;;;;5042072;28;20228;-72
2023/12/23 07:28:24;;;;;;;4.83;2.43;;;;;9.10;99827.00;;;;5044815;28;20242;-69
2023/12/23 07:31:12;;;;;;;15.67;2.90;;;;;9.00;99839.00;;;;5039301;28;20320;-69
2023/12/23 07:33:58;;;;;;;6.33;1.97;;;;;9.10;99849.00;;;;5049836;28;20355;-68
2023/12/23 07:36:45;;;;;;;5.73;2.30;;;;;9.10;99858.00;;;;5043114;28;20252;-69
2023/12/23 07:39:33;;;;;;;2.60;2.10;;;;;9.10;99861.00;;;;5040179;28;20332;-69
2023/12/23 07:42:20;;;;;;;3.73;2.17;;;;;9.10;99852.00;;;;5046456;28;20720;-69
2023/12/23 07:45:08;;;;;;;2.87;2.13;;;;;9.10;99852.00;;;;5045426;28;21740;-71
2023/12/23 07:47:54;;;;;;;10.50;2.13;;;;;9.20;99841.00;;;;5038115;28;20590;-69
2023/12/23 07:50:41;;;;;;;6.80;2.67;;;;;9.20;99847.00;;;;5046950;28;20772;-70
2023/12/23 07:53:27;;;;;;;2.57;2.07;;;;;9.20;99863.00;;;;5044396;28;20361;-74
2023/12/23 07:56:14;;;;;;;4.23;1.93;;;;;9.20;99852.00;;;;5043818;28;20269;-70
2023/12/23 07:59:01;;;;;;;3.40;2.10;;;;;9.20;99856.00;;;;5047816;28;20224;-70
2023/12/23 08:01:47;;;;;;;8.63;2.57;;;;;9.20;99864.00;;;;5044279;28;20677;-69
2023/12/23 08:04:35;;;;;;;5.00;3.00;;;;;9.20;99867.00;;;;5042748;28;20235;-68
2023/12/23 08:07:21;;;;;;;20.90;2.80;;;;;9.20;99856.00;;;;5041319;28;20250;-68
2023/12/23 08:10:08;;;;;;;4.70;2.27;;;;;9.30;99864.00;;;;5035880;28;20239;-68
2023/12/23 08:12:57;;;;;;;5.90;2.30;;;;;9.30;99881.00;;;;5034430;28;20234;-69
2023/12/23 08:15:43;;;;;;;8.60;2.60;;;;;9.30;99880.00;;;;5044886;28;20230;-69
2023/12/23 08:18:30;;;;;;;6.20;2.67;;;;;9.20;99889.00;;;;5037521;28;20239;-69
2023/12/23 08:21:17;;;;;;;6.00;2.47;;;;;9.20;99898.00;;;;5034920;28;21454;-69
2023/12/23 08:24:03;;;;;;;6.07;2.37;;;;;9.20;99880.00;;;;5047857;28;20244;-70
2023/12/23 08:26:50;;;;;;;2.53;2.17;;;;;9.20;99891.00;;;;5039323;28;20241;-69
2023/12/23 08:29:40;;;;;;;11.70;2.37;;;;;9.20;99875.00;;;;5039127;28;20272;-66
2023/12/23 08:32:26;;;;;;;3.50;2.27;;;;;9.30;99879.00;;;;5038575;28;20224;-69
2023/12/23 08:35:14;;;;;;;9.57;2.47;;;;;9.20;99895.00;;;;5038174;28;20357;-65
2023/12/23 08:38:00;;;;;;;3.20;2.27;;;;;9.30;99899.00;;;;5041027;28;20303;-69
2023/12/23 08:40:47;;;;;;;6.50;2.37;;;;;9.30;99910.00;;;;5042655;28;20240;-69
2023/12/23 08:43:33;;;;;;;5.57;2.93;;;;;9.30;99905.00;;;;5047485;28;20239;-68
2023/12/23 08:46:20;;;;;;;3.73;2.77;;;;;9.30;99891.00;;;;5043804;28;20286;-68
2023/12/23 08:49:07;;;;;;;6.57;2.50;;;;;9.20;99906.00;;;;5040712;28;20891;-69
2023/12/23 08:51:54;;;;;;;6.67;2.73;;;;;9.30;99905.00;;;;5042968;28;20286;-71
2023/12/23 08:54:40;;;;;;;8.50;2.63;;;;;9.30;99899.00;;;;5045016;28;20232;-69
2023/12/23 08:57:27;;;;;;;10.50;2.63;;;;;9.30;99906.00;;;;5039848;28;20244;-68
2023/12/23 09:00:15;;;;;;;9.20;2.70;;;;;9.30;99902.00;;;;5045448;28;20236;-68
2023/12/23 09:03:04;;;;;;;10.23;2.50;;;;;9.30;99921.00;;;;5042388;28;20266;-69
2023/12/23 09:05:50;;;;;;;5.97;2.53;;;;;9.30;99913.00;;;;5041921;28;20235;-69
2023/12/23 09:08:38;;;;;;;6.17;3.13;;;;;9.30;99930.00;;;;5031260;28;20794;-68
2023/12/23 09:11:24;;;;;;;8.23;2.70;;;;;9.30;99929.00;;;;5037643;28;20280;-67
2023/12/23 09:14:11;;;;;;;4.20;2.60;;;;;9.30;99928.00;;;;5038924;28;20268;-68
2023/12/23 09:16:58;;;;;;;10.10;2.83;;;;;9.40;99920.00;;;;5041857;28;20709;-69
2023/12/23 09:19:45;;;;;;;7.47;2.43;;;;;9.40;99913.00;;;;5044047;28;20229;-65
2023/12/23 09:22:32;;;;;;;6.03;2.93;;;;;9.40;99928.00;;;;5040813;28;20331;-72
2023/12/23 09:25:18;;;;;;;8.77;2.80;;;;;9.30;99908.00;;;;5040960;28;20233;-66
2023/12/23 09:28:05;;;;;;;5.63;1.97;;;;;9.40;99915.00;;;;5041831;28;20243;-68
2023/12/23 09:30:52;;;;;;;6.83;2.33;;;;;9.40;99925.00;;;;5043192;28;20271;-68
2023/12/23 09:33:39;;;;;;;9.13;2.73;;;;;9.40;99931.00;;;;5038205;28;20242;-69
2023/12/23 09:36:27;;;;;;;10.17;2.60;;;;;9.40;99938.00;;;;5036753;28;20296;-69
2023/12/23 09:39:13;;;;;;;5.53;1.90;;;;;9.40;99945.00;;;;5038479;28;20320;-68
2023/12/23 09:42:00;;;;;;;5.63;2.77;;;;;9.40;99933.00;;;;5042416;28;20298;-67
2023/12/23 09:44:47;;;;;;;5.70;1.87;;;;;9.40;99945.00;;;;5042384;28;20984;-68
2023/12/23 09:47:33;;;;;;;3.77;1.87;;;;;9.40;99943.00;;;;5043338;28;20852;-69
2023/12/23 09:50:20;;;;;;;10.70;2.00;;;;;9.50;99952.00;;;;5043295;28;20244;-69
2023/12/23 09:53:09;;;;;;;3.10;1.70;;;;;9.50;99938.00;;;;5042683;28;20229;-70
2023/12/23 09:55:57;;;;;;;8.27;2.17;;;;;9.50;99958.00;;;;5043612;28;20290;-69
2023/12/23 09:58:44;;;;;;;3.80;1.80;;;;;9.50;99956.00;;;;5040196;28;20232;-69
2023/12/23 10:01:31;;;;;;;9.37;2.43;;;;;9.50;99948.00;;;;5038722;28;20228;-67
2023/12/23 10:04:17;;;;;;;1.77;1.63;;;;;9.40;99953.00;;;;5043371;28;20297;-70
2023/12/23 10:07:04;;;;;;;6.40;2.20;;;;;9.50;99960.00;;;;5043547;28;20232;-67
2023/12/23 10:09:52;;;;;;;8.40;1.93;;;;;9.50;99972.00;;;;5040201;28;20717;-66
2023/12/23 10:12:38;;;;;;;10.30;2.87;;;;;9.50;99963.00;;;;5036654;28;20233;-70
2023/12/23 10:15:25;;;;;;;7.03;2.00;;;;;9.40;99968.00;;;;5039651;28;20706;-68
2023/12/23 10:18:13;;;;;;;4.87;2.03;;;;;9.50;99976.00;;;;5038400;28;20239;-69
2023/12/23 10:21:00;;;;;;;6.23;1.77;;;;;9.50;99991.00;;;;5038297;28;20231;-69
2023/12/23 10:23:46;;;;;;;8.93;1.80;;;;;9.50;99960.00;;;;5043081;28;20232;-71
2023/12/23 10:26:35;;;;;;;8.30;2.03;;;;;9.50;99967.00;;;;5044763;28;20864;-70
2023/12/23 10:29:23;;;;;;;2.87;2.10;;;;;9.50;99975.00;;;;5037938;28;20233;-67
2023/12/23 10:32:12;;;;;;;3.30;2.07;;;;;9.50;99972.00;;;;5042533;28;20236;-66
2023/12/23 10:35:01;;;;;;;5.37;2.50;;;;;9.50;99970.00;;;;5042586;28;20299;-65
2023/12/23 10:37:51;;;;;;;2.77;1.80;;;;;9.50;99965.00;;;;5035108;28;20240;-65
2023/12/23 10:40:40;;;;;;;5.27;1.90;;;;;9.50;99961.00;;;;5032803;28;20592;-67
2023/12/23 10:43:29;;;;;;;3.13;1.70;;;;;9.50;99965.00;;;;5040670;28;20275;-67
2023/12/23 10:46:16;;;;;;;5.67;1.70;;;;;9.60;99981.00;;;;5044882;28;20313;-66
2023/12/23 10:49:04;;;;;;;8.57;2.33;;;;;9.60;99957.00;;;;5034705;28;20240;-71
2023/12/23 10:51:54;;;;;;;4.93;2.03;;;;;9.60;99970.00;;;;5042838;28;20248;-70
2023/12/23 10:54:41;;;;;;;5.83;1.60;;;;;9.50;99968.00;;;;5042414;28;20243;-67
2023/12/23 10:57:29;;;;;;;2.07;1.87;;;;;9.50;99968.00;;;;5034550;28;20231;-69
2023/12/23 11:00:17;;;;;;;6.30;2.23;;;;;9.50;99969.00;;;;5041533;28;20371;-69
2023/12/23 11:03:06;;;;;;;3.97;1.93;;;;;9.60;99971.00;;;;5045809;28;20242;-69
2023/12/23 11:05:54;;;;;;;4.60;1.80;;;;;9.60;99936.00;;;;5041046;28;20236;-71
2023/12/23 11:08:42;;;;;;;4.53;1.90;;;;;9.60;99951.00;;;;5045736;28;20274;-69
2023/12/23 11:11:30;;;;;;;2.83;1.60;;;;;9.60;99978.00;;;;5046723;28;20482;-70
2023/12/23 11:14:16;;;;;;;3.50;1.87;;;;;9.60;99985.00;;;;5049537;28;20298;-69
2023/12/23 11:17:21;;;;;;;6.10;2.20;;;;;9.50;99973.00;;;;5045472;28;20237;-69
2023/12/23 11:20:29;;;;;;;8.17;2.37;;;;;9.60;99975.00;;;;5042919;28;20236;-68
2023/12/23 11:23:35;;;;;;;6.07;1.70;;;;;9.60;99975.00;;;;5038017;28;20259;-71
2023/12/23 11:26:41;;;;;;;3.73;1.60;;;;;9.60;99978.00;;;;5050454;28;20368;-68
2023/12/23 11:29:28;;;;;;;6.60;2.33;;;;;9.60;99993.00;;;;5045374;28;20323;-70
2023/12/23 11:32:15;;;;;;;5.37;1.87;;;;;9.60;99989.00;;;;5044003;28;20244;-70
2023/12/23 11:35:04;;;;;;;3.93;2.53;;;;;9.60;99984.00;;;;5046548;28;20872;-70
2023/12/23 11:37:52;;;;;;;6.90;2.10;;;;;9.60;99991.00;;;;5037113;28;21106;-69
2023/12/23 11:40:39;;;;;;;5.37;1.83;;;;;9.60;99986.00;;;;5042868;28;20307;-70
2023/12/23 11:43:26;;;;;;;4.47;2.20;;;;;9.60;99973.00;;;;5044138;28;20235;-69
2023/12/23 11:46:12;;;;;;;6.90;2.37;;;;;9.60;99970.00;;;;5044619;28;20237;-70
2023/12/23 11:49:00;;;;;;;4.70;1.83;;;;;9.60;99977.00;;;;5042703;28;20234;-70
2023/12/23 11:51:47;;;;;;;8.37;2.20;;;;;9.60;99973.00;;;;5043713;28;20243;-69
2023/12/23 11:54:33;;;;;;;5.80;2.07;;;;;9.60;99987.00;;;;5034437;28;20235;-67
2023/12/23 11:57:19;;;;;;;4.10;2.17;;;;;9.60;99996.00;;;;5043511;28;20307;-69
2023/12/23 12:00:07;;;;;;;10.50;2.40;;;;;9.60;99988.00;;;;5040850;28;20295;-69
2023/12/23 12:02:54;;;;;;;4.83;2.13;;;;;9.70;99990.00;;;;5044131;28;20345;-70
2023/12/23 12:05:42;;;;;;;8.00;2.97;;;;;9.60;99989.00;;;;5045962;28;20285;-70
2023/12/23 12:08:29;;;;;;;3.73;2.23;;;;;9.70;99992.00;;;;5044219;28;20239;-69
2023/12/23 12:11:16;;;;;;;6.10;2.70;;;;;9.60;99996.00;;;;5041768;28;20244;-69
2023/12/23 12:14:02;;;;;;;2.43;1.83;;;;;9.60;99991.00;;;;5044979;28;20235;-68
2023/12/23 12:16:48;;;;;;;6.33;2.07;;;;;9.60;99982.00;;;;5045545;28;20244;-66
2023/12/23 12:19:35;;;;;;;6.27;2.37;;;;;9.60;99981.00;;;;5030143;28;20246;-69
2023/12/23 12:22:23;;;;;;;5.10;1.93;;;;;9.60;99968.00;;;;5042864;28;20311;-69
2023/12/23 12:25:09;;;;;;;9.10;2.60;;;;;9.70;99994.00;;;;5042618;28;20232;-69
2023/12/23 12:27:56;;;;;;;3.03;1.87;;;;;9.70;100002.00;;;;5030096;28;20237;-71
2023/12/23 12:30:44;;;;;;;5.03;1.80;;;;;9.60;99985.00;;;;5038440;28;20647;-71
2023/12/23 12:33:30;;;;;;;2.63;2.00;;;;;9.60;100003.00;;;;5033956;28;20654;-71
2023/12/23 12:36:18;;;;;;;6.83;3.33;;;;;9.60;99993.00;;;;5038286;28;20226;-70
2023/12/23 12:39:05;;;;;;;5.07;1.93;;;;;9.60;99998.00;;;;5040126;28;20228;-72
2023/12/23 12:41:53;;;;;;;9.00;2.17;;;;;9.70;100007.00;;;;5038781;28;20808;-70
2023/12/23 12:44:40;;;;;;;5.73;2.17;;;;;9.70;100000.00;;;;5042027;28;20343;-70
2023/12/23 12:47:28;;;;;;;3.23;2.00;;;;;9.70;100022.00;;;;5042237;28;20240;-70
2023/12/23 12:50:18;;;;;;;3.47;1.77;;;;;9.70;100022.00;;;;5042435;28;20231;-71
2023/12/23 12:53:05;;;;;;;5.03;2.13;;;;;9.70;100018.00;;;;5045506;28;20228;-70
2023/12/23 12:55:52;;;;;;;3.93;2.00;;;;;9.70;100005.00;;;;5032894;28;20232;-73
2023/12/23 12:58:40;;;;;;;3.97;2.73;;;;;9.70;100013.00;;;;5042032;28;20243;-70
2023/12/23 13:01:28;;;;;;;5.10;2.17;;;;;9.70;100018.00;;;;5032899;28;20255;-71
2023/12/23 13:04:14;;;;;;;4.57;1.70;;;;;9.70;100009.00;;;;5036111;28;20596;-71
2023/12/23 13:07:01;;;;;;;6.03;1.93;;;;;9.70;100017.00;;;;5040547;28;20636;-71
2023/12/23 13:09:47;;;;;;;2.33;1.63;;;;;9.70;100024.00;;;;5036267;28;20357;-71
2023/12/23 13:12:35;;;;;;;12.53;2.07;;;;;9.70;100027.00;;;;5040984;28;20305;-70
2023/12/23 13:15:22;;;;;;;7.37;1.90;;;;;9.70;100031.00;;;;5039196;28;20252;-70
2023/12/23 13:18:08;;;;;;;4.97;2.10;;;;;9.70;100043.00;;;;5043317;28;20233;-70
2023/12/23 13:20:55;;;;;;;3.40;1.97;;;;;9.70;100039.00;;;;5039429;28;20236;-70
2023/12/23 13:23:41;;;;;;;4.37;2.13;;;;;9.70;100039.00;;;;5038751;28;20324;-70
2023/12/23 13:26:28;;;;;;;5.83;1.90;;;;;9.80;100043.00;;;;5043286;28;20239;-67
2023/12/23 13:29:18;;;;;;;7.67;1.87;;;;;9.80;100043.00;;;;5040041;28;20666;-69
2023/12/23 13:32:07;;;;;;;3.03;1.90;;;;;9.80;100040.00;;;;5042517;28;20265;-69
2023/12/23 13:34:56;;;;;;;8.60;2.40;;;;;9.80;100042.00;;;;5030889;28;20266;-69
2023/12/23 13:37:43;;;;;;;6.00;1.60;;;;;9.80;100043.00;;;;5032472;28;21818;-69
2023/12/23 13:40:29;;;;;;;10.53;2.17;;;;;9.80;100041.00;;;;5040400;28;20236;-68
2023/12/23 13:43:15;;;;;;;6.20;2.10;;;;;9.80;100050.00;;;;5038701;28;20229;-69
2023/12/23 13:46:06;;;;;;;8.07;2.57;;;;;9.80;100057.00;;;;5034723;28;20732;-70
2023/12/23 13:48:53;;;;;;;7.63;3.60;;;;;9.80;100063.00;;;;5040902;28;20232;-71
2023/12/23 13:51:40;;;;;;;14.50;3.93;;;;;9.80;100082.00;;;;5039205;28;20259;-69
2023/12/23 13:54:27;;;;;;;8.40;4.17;;;;;9.80;100076.00;;;;5039591;28;20316;-71
2023/12/23 13:57:14;;;;;;;10.70;5.07;;;;;9.80;100082.00;;;;5039231;28;20239;-70
2023/12/23 14:00:00;;;;;;;20.90;5.63;;;;;9.80;100092.00;;;;5043183;28;20294;-70
2023/12/23 14:02:48;;;;;;;15.17;6.10;;;;;9.80;100077.00;;;;5041219;28;20289;-70